Time;durP1;ratioP1;P1;durP2;ratioP2;P2;SDS_P1;SDS_P2;PMS_P1;PMS_P2;Temp;Humidity;BMP_temperature;BMP_pressure;BME280_temperature;BME280_humidity;BME280_pressure;Samples;Min_cycle;Max_cycle;Signal;HPM_P1;HPM_P2
2024/03/07 00:01:40;;;;;;;24.05;16.10;;;;;;;9.66;67.22;94745.19;5048573;28;20017;-88
2024/03/07 00:04:05;;;;;;;19.55;15.45;;;;;;;9.61;67.58;94751.97;5050680;28;20052;-88
2024/03/07 00:06:31;;;;;;;23.20;17.08;;;;;;;9.58;67.67;94739.91;5047152;28;20055;-87
2024/03/07 00:08:56;;;;;;;21.67;15.85;;;;;;;9.64;67.54;94731.13;5047414;28;20021;-88
2024/03/07 00:11:22;;;;;;;22.98;16.25;;;;;;;9.66;67.43;94739.69;5048050;28;20446;-88
2024/03/07 00:13:47;;;;;;;22.05;15.90;;;;;;;9.66;67.48;94734.97;5047270;28;20029;-87
2024/03/07 00:16:12;;;;;;;22.98;15.93;;;;;;;9.60;67.48;94733.97;5048305;28;20457;-88
2024/03/07 00:18:38;;;;;;;20.70;15.07;;;;;;;9.61;67.69;94732.75;5047042;28;20032;-88
2024/03/07 00:21:04;;;;;;;20.25;16.45;;;;;;;9.58;68.11;94733.63;5049752;28;20021;-87
2024/03/07 00:23:29;;;;;;;20.90;15.55;;;;;;;9.51;68.20;94728.31;5047563;28;20111;-87
2024/03/07 00:25:54;;;;;;;20.60;15.90;;;;;;;9.50;68.41;94722.06;5047267;28;20021;-88
2024/03/07 00:28:20;;;;;;;22.80;15.82;;;;;;;9.48;68.35;94721.75;5047707;28;20037;-89
2024/03/07 00:31:04;;;;;;;22.58;15.02;;;;;;;9.50;68.22;94721.31;5046640;28;20067;-89
2024/03/07 00:33:29;;;;;;;21.95;16.33;;;;;;;9.49;68.48;94730.75;5049434;28;20025;-89
2024/03/07 00:35:55;;;;;;;18.95;14.63;;;;;;;9.49;68.36;94725.25;5050684;28;20104;-89
2024/03/07 00:38:20;;;;;;;21.90;14.30;;;;;;;9.43;68.06;94724.25;5059141;28;20047;-88
2024/03/07 00:40:46;;;;;;;19.83;13.55;;;;;;;9.43;68.43;94718.78;5068594;28;20025;-89
2024/03/07 00:43:11;;;;;;;19.83;14.43;;;;;;;9.55;67.79;94720.78;5058443;28;20103;-92
2024/03/07 00:45:37;;;;;;;17.15;13.98;;;;;;;9.40;67.62;94723.13;5054678;28;20025;-91
2024/03/07 00:48:03;;;;;;;18.55;13.90;;;;;;;9.29;67.87;94714.44;5057717;28;20025;-94
2024/03/07 00:50:30;;;;;;;18.08;12.70;;;;;;;9.18;68.22;94712.00;5053119;28;20036;-91
2024/03/07 00:52:56;;;;;;;16.25;12.18;;;;;;;9.01;68.68;94711.25;5054067;28;20035;-90
2024/03/07 00:55:22;;;;;;;18.95;13.50;;;;;;;8.97;68.84;94709.81;5053441;28;20103;-90
2024/03/07 00:57:47;;;;;;;17.92;13.98;;;;;;;8.92;69.04;94713.06;5052666;28;20029;-89
2024/03/07 01:00:13;;;;;;;18.73;14.50;;;;;;;8.85;69.36;94705.81;5051223;28;20028;-91
2024/03/07 01:02:43;;;;;;;17.70;13.50;;;;;;;8.74;69.93;94708.81;5051857;28;20017;-90
2024/03/07 01:05:17;;;;;;;18.35;13.55;;;;;;;8.75;70.28;94706.84;5052065;28;20021;-90
2024/03/07 01:07:44;;;;;;;18.80;13.75;;;;;;;8.72;70.48;94696.75;5051640;28;20021;-90
2024/03/07 01:10:09;;;;;;;20.02;13.60;;;;;;;8.72;70.29;94702.25;5052097;28;20025;-91
2024/03/07 01:12:35;;;;;;;18.40;14.20;;;;;;;8.73;70.14;94690.06;5051116;28;20032;-88
2024/03/07 01:15:01;;;;;;;17.17;13.20;;;;;;;8.76;69.99;94692.72;5050861;28;20509;-89
2024/03/07 01:17:26;;;;;;;17.42;12.10;;;;;;;8.74;70.01;94703.34;5052485;28;20564;-88
2024/03/07 01:19:52;;;;;;;16.90;13.02;;;;;;;8.66;70.11;94695.72;5049979;28;20029;-87
2024/03/07 01:22:17;;;;;;;16.52;12.98;;;;;;;8.71;69.88;94701.44;5050509;28;20143;-89
2024/03/07 01:24:43;;;;;;;20.25;13.63;;;;;;;8.61;69.94;94702.50;5050354;28;20025;-88
2024/03/07 01:27:09;;;;;;;22.15;13.90;;;;;;;8.38;71.00;94695.25;5050044;28;20060;-86
2024/03/07 01:29:34;;;;;;;17.52;13.10;;;;;;;8.35;71.22;94687.84;5050868;28;20025;-87
2024/03/07 01:32:00;;;;;;;18.35;13.70;;;;;;;8.41;71.35;94688.88;5050694;28;20475;-87
2024/03/07 01:34:25;;;;;;;18.30;13.38;;;;;;;8.40;71.39;94684.63;5051693;28;20044;-86
2024/03/07 01:36:51;;;;;;;17.67;12.82;;;;;;;8.49;70.78;94693.00;5051747;28;20434;-86
2024/03/07 01:39:17;;;;;;;16.05;12.75;;;;;;;8.52;71.05;94694.09;5050159;28;20028;-87
2024/03/07 01:41:43;;;;;;;16.33;12.32;;;;;;;8.54;71.18;94699.16;5050263;28;20388;-87
2024/03/07 01:44:08;;;;;;;17.55;12.70;;;;;;;8.50;71.15;94702.00;5048666;28;20331;-87
2024/03/07 01:46:34;;;;;;;16.13;12.48;;;;;;;8.52;71.19;94696.84;5050794;28;20055;-88
2024/03/07 01:48:59;;;;;;;17.38;13.20;;;;;;;8.54;71.22;94701.91;5049042;28;20056;-87
2024/03/07 01:51:25;;;;;;;17.70;12.88;;;;;;;8.60;71.06;94703.72;5051209;28;20023;-89
2024/03/07 01:53:51;;;;;;;18.27;13.35;;;;;;;8.64;71.26;94711.81;5049805;28;20025;-87
2024/03/07 01:56:18;;;;;;;20.48;13.85;;;;;;;8.66;71.45;94712.16;5050217;28;20025;-88
2024/03/07 01:58:46;;;;;;;18.58;13.20;;;;;;;8.57;71.46;94698.31;5048260;28;20028;-88
2024/03/07 02:01:14;;;;;;;18.70;13.55;;;;;;;8.64;71.76;94701.63;5050066;28;20028;-88
2024/03/07 02:03:39;;;;;;;18.17;13.40;;;;;;;8.73;71.39;94703.78;5049214;28;20064;-87
2024/03/07 02:06:05;;;;;;;16.10;11.52;;;;;;;8.76;70.83;94697.41;5049305;28;20017;-89
2024/03/07 02:08:31;;;;;;;17.15;12.48;;;;;;;8.77;71.00;94699.75;5049984;28;20040;-89
2024/03/07 02:10:58;;;;;;;17.98;12.20;;;;;;;8.78;70.76;94695.03;5049382;28;20508;-89
2024/03/07 02:13:23;;;;;;;17.30;13.07;;;;;;;8.81;70.77;94685.94;5049682;28;20431;-87
2024/03/07 02:15:48;;;;;;;18.08;12.32;;;;;;;8.87;70.39;94686.94;5049557;28;20036;-88
2024/03/07 02:18:14;;;;;;;16.90;11.73;;;;;;;8.89;70.29;94670.84;5049223;28;20021;-88
2024/03/07 02:20:46;;;;;;;16.50;12.70;;;;;;;8.92;70.26;94671.97;5049210;28;20104;-89
2024/03/07 02:23:12;;;;;;;15.93;11.40;;;;;;;9.03;69.11;94672.44;5048977;28;20017;-88
2024/03/07 02:25:39;;;;;;;13.68;10.68;;;;;;;8.96;68.96;94662.44;5049448;28;20039;-88
2024/03/07 02:28:04;;;;;;;14.27;10.80;;;;;;;8.96;69.25;94678.13;5048841;28;20048;-88
2024/03/07 02:30:33;;;;;;;16.15;11.68;;;;;;;8.95;69.36;94687.56;5049282;28;20033;-88
2024/03/07 02:33:06;;;;;;;13.38;10.60;;;;;;;8.84;69.80;94687.81;5048972;28;20035;-87
2024/03/07 02:35:33;;;;;;;15.57;12.20;;;;;;;8.85;70.16;94694.84;5049712;28;20074;-88
2024/03/07 02:37:58;;;;;;;15.30;11.73;;;;;;;8.89;69.95;94700.22;5047741;28;20029;-88
2024/03/07 02:40:24;;;;;;;14.88;10.90;;;;;;;8.89;69.84;94701.00;5048698;28;20036;-88
2024/03/07 02:42:49;;;;;;;16.23;11.45;;;;;;;8.92;70.00;94704.84;5049303;28;20127;-89
2024/03/07 02:45:15;;;;;;;16.10;11.55;;;;;;;8.88;70.19;94707.69;5048926;28;20546;-90
2024/03/07 02:47:41;;;;;;;16.75;11.85;;;;;;;8.83;70.06;94701.94;5048498;28;20053;-89
2024/03/07 02:50:09;;;;;;;15.40;11.93;;;;;;;8.86;70.12;94707.34;5049897;28;20118;-87
2024/03/07 02:52:34;;;;;;;15.77;11.98;;;;;;;8.87;70.15;94713.59;5049647;28;20195;-90
2024/03/07 02:55:00;;;;;;;19.20;11.82;;;;;;;8.86;70.06;94699.13;5049365;28;20083;-89
2024/03/07 02:57:25;;;;;;;15.27;11.90;;;;;;;8.94;69.58;94700.47;5048873;28;20021;-90
2024/03/07 02:59:50;;;;;;;17.20;12.02;;;;;;;8.84;69.25;94698.78;5049263;28;20048;-90
2024/03/07 03:02:16;;;;;;;14.63;10.65;;;;;;;8.93;68.70;94709.13;5049004;28;20028;-91
2024/03/07 03:04:42;;;;;;;13.95;10.23;;;;;;;8.91;68.53;94698.59;5050743;28;20024;-87
2024/03/07 03:07:08;;;;;;;15.52;10.65;;;;;;;8.91;68.82;94709.56;5049214;28;20110;-87
2024/03/07 03:09:33;;;;;;;17.17;12.10;;;;;;;8.86;69.16;94714.81;5048300;28;20022;-87
2024/03/07 03:11:59;;;;;;;16.73;12.25;;;;;;;8.77;69.15;94710.72;5048461;28;20021;-86
2024/03/07 03:14:24;;;;;;;16.05;11.75;;;;;;;8.80;69.38;94714.56;5048349;28;20025;-87
2024/03/07 03:16:49;;;;;;;16.42;11.35;;;;;;;8.74;69.55;94714.31;5048077;28;20435;-87
2024/03/07 03:19:15;;;;;;;17.63;10.98;;;;;;;8.71;69.52;94712.41;5048295;28;20017;-88
2024/03/07 03:21:40;;;;;;;13.85;9.95;;;;;;;8.73;69.02;94704.53;5049726;28;20021;-87
2024/03/07 03:24:07;;;;;;;13.70;9.65;;;;;;;8.72;68.63;94711.22;5047682;28;20465;-87
2024/03/07 03:26:32;;;;;;;14.18;10.52;;;;;;;8.68;69.00;94712.50;5048564;28;20024;-86
2024/03/07 03:28:58;;;;;;;14.32;10.05;;;;;;;8.65;69.07;94705.91;5047885;28;20082;-87
2024/03/07 03:31:24;;;;;;;15.75;11.07;;;;;;;8.56;69.07;94710.47;5046835;28;20024;-86
2024/03/07 03:33:50;;;;;;;19.02;12.23;;;;;;;8.67;69.29;94721.94;5048116;28;20028;-87
2024/03/07 03:36:16;;;;;;;14.38;10.15;;;;;;;8.72;69.00;94727.69;5047554;28;20028;-90
2024/03/07 03:38:42;;;;;;;16.85;10.98;;;;;;;8.66;69.26;94712.16;5048019;28;20025;-86
2024/03/07 03:41:07;;;;;;;14.93;11.15;;;;;;;8.67;69.16;94708.25;5047441;28;20507;-85
2024/03/07 03:43:32;;;;;;;13.77;10.70;;;;;;;8.68;69.11;94712.50;5048471;28;20021;-86
2024/03/07 03:45:58;;;;;;;14.88;10.48;;;;;;;8.67;69.16;94709.00;5047393;28;20040;-87
2024/03/07 03:48:23;;;;;;;15.20;10.52;;;;;;;8.64;69.33;94703.59;5047467;28;20025;-87
2024/03/07 03:50:48;;;;;;;9.70;7.07;;;;;;;8.73;68.39;94699.06;5047914;28;20044;-88
2024/03/07 03:53:14;;;;;;;6.15;4.60;;;;;;;8.69;67.35;94694.88;5047785;28;20086;-88
2024/03/07 03:55:39;;;;;;;7.18;4.57;;;;;;;8.67;67.02;94694.53;5048010;28;20021;-89
2024/03/07 03:58:09;;;;;;;5.07;3.63;;;;;;;8.67;67.15;94697.28;5049077;28;20166;-89
2024/03/07 04:00:34;;;;;;;5.18;3.40;;;;;;;8.59;66.87;94693.94;5057164;28;20036;-92
2024/03/07 04:02:59;;;;;;;4.70;3.22;;;;;;;8.52;66.62;94694.09;5070306;28;20208;-91
2024/03/07 04:05:25;;;;;;;3.67;2.58;;;;;;;8.54;66.35;94690.94;5066897;28;20399;-92
2024/03/07 04:07:50;;;;;;;4.43;2.97;;;;;;;8.47;66.13;94700.09;5072329;28;20025;-93
2024/03/07 04:10:17;;;;;;;3.22;2.38;;;;;;;8.36;65.47;94697.63;5074299;28;20029;-94
2024/03/07 04:12:43;;;;;;;4.70;2.67;;;;;;;8.24;65.22;94711.97;5074109;28;20017;-94
2024/03/07 04:15:16;;;;;;;4.15;2.45;;;;;;;8.18;66.10;94702.72;5068392;28;20175;-93
2024/03/07 04:17:42;;;;;;;5.22;3.25;;;;;;;8.09;66.63;94705.28;5063504;28;20032;-93
2024/03/07 04:20:10;;;;;;;2.53;2.08;;;;;;;8.10;66.67;94713.06;5058024;28;20025;-89
2024/03/07 04:22:38;;;;;;;3.15;2.00;;;;;;;8.07;66.53;94718.63;5054524;28;20032;-90
2024/03/07 04:25:06;;;;;;;4.07;2.13;;;;;;;7.97;66.49;94714.91;5054021;28;20033;-92
2024/03/07 04:27:31;;;;;;;3.25;1.88;;;;;;;7.95;66.55;94720.06;5053426;28;20495;-91
2024/03/07 04:29:57;;;;;;;3.78;2.47;;;;;;;7.87;66.86;94715.94;5056266;28;20029;-91
2024/03/07 04:32:23;;;;;;;3.25;2.42;;;;;;;7.81;67.54;94709.44;5058366;28;20456;-93
2024/03/07 04:34:48;;;;;;;3.58;2.05;;;;;;;7.83;67.83;94713.28;5056750;28;20040;-91
2024/03/07 04:37:14;;;;;;;4.07;2.20;;;;;;;7.77;67.56;94706.75;5053670;28;20025;-91
2024/03/07 04:39:39;;;;;;;3.35;2.25;;;;;;;7.88;67.42;94712.00;5048249;28;20021;-90
2024/03/07 04:42:06;;;;;;;2.25;1.83;;;;;;;7.78;67.50;94705.56;5053750;28;20039;-91
2024/03/07 04:44:32;;;;;;;3.08;1.80;;;;;;;7.80;68.26;94702.41;5049346;28;20240;-91
2024/03/07 04:46:59;;;;;;;3.35;2.00;;;;;;;7.77;68.44;94708.72;5048565;28;20078;-91
2024/03/07 04:49:27;;;;;;;2.53;1.83;;;;;;;7.78;68.34;94704.78;5054008;28;20028;-90
2024/03/07 04:51:53;;;;;;;3.72;1.73;;;;;;;7.72;68.24;94710.75;5049250;28;20036;-90
2024/03/07 04:54:19;;;;;;;2.67;2.00;;;;;;;7.71;68.06;94706.50;5048952;28;20104;-90
2024/03/07 04:56:45;;;;;;;2.85;1.90;;;;;;;7.75;67.78;94706.44;5047616;28;20021;-91
2024/03/07 04:59:11;;;;;;;2.80;2.10;;;;;;;7.75;67.56;94722.06;5048518;28;20025;-92
2024/03/07 05:01:38;;;;;;;2.72;1.90;;;;;;;7.67;67.25;94722.22;5048855;28;20048;-90
2024/03/07 05:04:03;;;;;;;3.45;1.60;;;;;;;7.78;66.18;94718.47;5050553;28;20029;-89
2024/03/07 05:06:29;;;;;;;2.40;2.00;;;;;;;7.80;65.64;94727.03;5061364;28;20047;-89
2024/03/07 05:08:54;;;;;;;3.40;2.08;;;;;;;7.79;65.34;94722.75;5069196;28;20025;-90
2024/03/07 05:11:21;;;;;;;2.65;2.15;;;;;;;7.72;65.75;94729.16;5065538;28;20021;-91
2024/03/07 05:13:48;;;;;;;3.20;2.15;;;;;;;7.81;65.71;94729.34;5050189;28;20403;-90
2024/03/07 05:16:13;;;;;;;3.47;2.10;;;;;;;7.77;65.47;94733.38;5048765;28;20112;-90
2024/03/07 05:18:39;;;;;;;4.43;2.40;;;;;;;7.70;65.05;94723.34;5049949;28;20060;-89
2024/03/07 05:21:34;;;;;;;3.25;2.58;;;;;;;7.59;65.54;94726.28;5049065;28;20028;-90
2024/03/07 05:23:50;;;;;;;4.60;2.70;;;;;;;7.65;65.07;94737.50;5063738;28;20146;-92
2024/03/07 05:26:15;;;;;;;3.85;3.05;;;;;;;7.69;64.67;94743.69;5069762;28;20017;-91
2024/03/07 05:28:40;;;;;;;3.58;2.75;;;;;;;7.57;64.46;94747.03;5063383;28;20111;-91
2024/03/07 05:31:06;;;;;;;3.30;2.25;;;;;;;7.41;65.12;94747.78;5055686;28;20028;-92
2024/03/07 05:33:31;;;;;;;3.97;3.05;;;;;;;7.42;64.72;94747.34;5055095;28;20395;-91
2024/03/07 05:36:13;;;;;;;4.40;2.42;;;;;;;7.38;64.59;94745.88;5052861;28;20025;-89
2024/03/07 05:38:39;;;;;;;3.15;2.70;;;;;;;7.28;64.50;94749.56;5051698;28;20487;-91
2024/03/07 05:41:04;;;;;;;4.18;2.90;;;;;;;7.27;64.90;94748.03;5050360;28;20103;-86
2024/03/07 05:43:30;;;;;;;4.43;3.40;;;;;;;7.16;64.98;94748.22;5050086;28;20035;-88
2024/03/07 05:45:56;;;;;;;4.60;3.35;;;;;;;7.15;64.93;94744.72;5049929;28;20080;-88
2024/03/07 05:48:21;;;;;;;5.18;4.00;;;;;;;7.21;65.34;94753.22;5049720;28;20067;-89
2024/03/07 05:50:47;;;;;;;5.13;4.25;;;;;;;7.05;65.25;94739.44;5050450;28;20151;-88
2024/03/07 05:53:12;;;;;;;6.15;4.20;;;;;;;7.04;65.24;94746.88;5049931;28;20017;-87
2024/03/07 05:55:38;;;;;;;4.38;3.20;;;;;;;7.00;65.69;94759.88;5050046;28;20025;-89
2024/03/07 05:58:03;;;;;;;5.85;3.95;;;;;;;6.92;66.08;94748.25;5054716;28;20033;-86
2024/03/07 06:00:28;;;;;;;4.90;4.00;;;;;;;6.97;66.58;94755.22;5053594;28;20025;-86
2024/03/07 06:02:54;;;;;;;5.05;4.18;;;;;;;7.01;66.13;94761.41;5051258;28;20415;-87
2024/03/07 06:05:19;;;;;;;6.07;4.32;;;;;;;7.01;65.58;94764.13;5049826;28;20033;-88
2024/03/07 06:07:48;;;;;;;5.63;3.75;;;;;;;6.91;65.38;94771.31;5051738;28;20478;-87
2024/03/07 06:10:16;;;;;;;6.20;4.70;;;;;;;6.89;66.38;94764.75;5051203;28;20457;-86
2024/03/07 06:12:45;;;;;;;5.50;4.35;;;;;;;6.82;66.74;94775.78;5054948;28;20029;-84
2024/03/07 06:15:11;;;;;;;5.60;4.60;;;;;;;6.83;67.13;94785.53;5058316;28;20021;-92
2024/03/07 06:17:36;;;;;;;5.03;4.00;;;;;;;6.83;67.57;94777.34;5060335;28;20083;-90
2024/03/07 06:20:02;;;;;;;5.70;4.10;;;;;;;6.88;67.49;94785.03;5059992;28;20126;-92
2024/03/07 06:22:27;;;;;;;5.63;4.35;;;;;;;6.96;67.47;94786.47;5067493;28;20036;-90
2024/03/07 06:24:53;;;;;;;6.32;4.53;;;;;;;6.97;66.96;94781.78;5073906;28;20081;-90
2024/03/07 06:27:26;;;;;;;5.63;4.13;;;;;;;7.08;66.54;94787.84;5075504;28;20035;-89
2024/03/07 06:29:53;;;;;;;6.75;4.35;;;;;;;7.13;66.64;94777.19;5074806;28;20044;-88
2024/03/07 06:32:18;;;;;;;5.32;3.85;;;;;;;7.27;66.30;94775.38;5074720;28;20037;-89
2024/03/07 06:34:44;;;;;;;5.57;4.03;;;;;;;7.35;66.46;94783.03;5071667;28;20056;-89
2024/03/07 06:37:09;;;;;;;5.57;4.28;;;;;;;7.41;66.37;94780.59;5052686;28;20096;-91
2024/03/07 06:39:35;;;;;;;6.32;4.18;;;;;;;7.51;66.20;94782.31;5052289;28;20491;-90
2024/03/07 06:42:00;;;;;;;5.95;4.10;;;;;;;7.53;66.24;94774.50;5052882;28;20511;-90
2024/03/07 06:44:26;;;;;;;5.82;4.38;;;;;;;7.58;66.03;94768.53;5051449;28;20025;-92
2024/03/07 06:46:52;;;;;;;5.50;4.53;;;;;;;7.64;65.90;94777.78;5052747;28;20048;-92
2024/03/07 06:49:17;;;;;;;6.72;4.75;;;;;;;7.63;65.49;94778.97;5052992;28;20062;-89
2024/03/07 06:51:43;;;;;;;5.35;4.18;;;;;;;7.71;65.17;94777.63;5051865;28;20373;-87
2024/03/07 06:54:10;;;;;;;6.07;3.53;;;;;;;7.64;64.38;94790.69;5051448;28;20040;-82
2024/03/07 06:56:36;;;;;;;4.97;3.70;;;;;;;7.46;63.77;94780.09;5048369;28;20552;-82
2024/03/07 06:59:04;;;;;;;5.60;3.78;;;;;;;7.39;64.86;94775.53;5048211;28;20084;-83
2024/03/07 07:01:30;;;;;;;5.72;4.18;;;;;;;7.57;64.62;94780.66;5048087;28;20481;-84
2024/03/07 07:03:58;;;;;;;5.85;4.20;;;;;;;7.52;63.85;94786.63;5048609;28;20025;-85
2024/03/07 07:06:24;;;;;;;4.68;3.42;;;;;;;7.47;64.38;94778.91;5048108;28;20467;-85
2024/03/07 07:08:49;;;;;;;5.80;3.90;;;;;;;7.50;64.30;94771.81;5048311;28;20036;-85
2024/03/07 07:11:15;;;;;;;4.93;3.72;;;;;;;7.59;64.07;94767.34;5047900;28;20033;-84
2024/03/07 07:13:42;;;;;;;5.20;3.80;;;;;;;7.55;63.88;94769.34;5037273;28;20013;-84
2024/03/07 07:16:07;;;;;;;6.82;4.32;;;;;;;7.63;64.45;94767.28;5046987;28;20095;-82
2024/03/07 07:18:33;;;;;;;5.32;4.10;;;;;;;7.73;64.68;94772.50;5046231;28;20111;-83
2024/03/07 07:20:58;;;;;;;5.13;4.03;;;;;;;7.67;63.06;94779.66;5047081;28;20110;-85
2024/03/07 07:23:23;;;;;;;5.05;4.18;;;;;;;7.57;63.72;94775.19;5034022;28;20103;-83
2024/03/07 07:25:49;;;;;;;5.72;4.20;;;;;;;7.65;63.80;94778.56;5056644;28;20113;-83
2024/03/07 07:28:15;;;;;;;5.78;4.15;;;;;;;7.58;64.00;94779.47;5053531;28;20037;-84
2024/03/07 07:30:40;;;;;;;6.10;4.57;;;;;;;7.60;63.82;94779.03;5048794;28;20580;-84
2024/03/07 07:33:07;;;;;;;4.05;2.83;;;;;;;7.73;63.36;94780.72;5042708;28;20096;-83
2024/03/07 07:35:34;;;;;;;4.38;3.20;;;;;;;7.73;62.72;94780.72;5029491;28;20041;-82
2024/03/07 07:38:00;;;;;;;4.10;3.58;;;;;;;7.73;63.33;94775.25;5043204;28;20029;-83
2024/03/07 07:40:27;;;;;;;6.63;4.35;;;;;;;7.81;63.80;94773.16;5047790;28;20052;-83
2024/03/07 07:42:53;;;;;;;6.05;4.22;;;;;;;7.92;64.41;94770.19;5031285;28;20491;-83
2024/03/07 07:45:20;;;;;;;7.03;3.97;;;;;;;8.06;64.30;94766.38;5027767;28;20030;-82
2024/03/07 07:47:48;;;;;;;4.75;3.92;;;;;;;8.08;64.06;94766.69;5027728;28;20049;-83
2024/03/07 07:50:19;;;;;;;5.15;3.80;;;;;;;8.20;64.00;94769.56;5032426;28;20397;-87
2024/03/07 07:53:08;;;;;;;4.80;3.20;;;;;;;8.33;62.72;94769.66;5028904;28;20083;-84
2024/03/07 07:55:34;;;;;;;5.25;3.60;;;;;;;8.38;62.65;94763.72;5035542;28;20059;-83
2024/03/07 07:58:00;;;;;;;6.35;3.95;;;;;;;8.36;62.21;94766.09;5034191;28;20033;-83
2024/03/07 08:00:28;;;;;;;5.93;3.70;;;;;;;8.33;62.20;94764.19;5049168;28;20784;-82
2024/03/07 08:02:57;;;;;;;7.72;3.75;;;;;;;8.45;61.89;94782.72;5039947;28;20017;-81
2024/03/07 08:05:24;;;;;;;4.05;3.10;;;;;;;8.59;61.06;94772.63;5027648;28;20057;-83
2024/03/07 08:07:51;;;;;;;4.28;2.97;;;;;;;8.59;61.38;94778.09;5026997;28;20503;-82
2024/03/07 08:10:17;;;;;;;3.88;3.20;;;;;;;8.62;61.81;94780.00;5027221;28;20084;-84
2024/03/07 08:12:43;;;;;;;5.45;3.47;;;;;;;8.73;61.45;94786.00;5027587;28;20080;-85
2024/03/07 08:15:13;;;;;;;4.35;3.30;;;;;;;8.79;61.11;94789.75;5034416;28;20580;-81
2024/03/07 08:17:46;;;;;;;3.33;3.00;;;;;;;8.82;60.82;94786.16;5047540;28;20025;-81
2024/03/07 08:20:13;;;;;;;4.40;3.17;;;;;;;8.75;60.52;94792.59;5046681;28;20485;-84
2024/03/07 08:22:40;;;;;;;4.88;3.47;;;;;;;8.66;61.06;94797.09;5046961;28;20514;-85
2024/03/07 08:25:09;;;;;;;3.95;3.35;;;;;;;8.64;61.48;94796.78;5046966;28;20029;-83
2024/03/07 08:27:36;;;;;;;4.78;3.70;;;;;;;8.70;61.36;94804.06;5047157;28;20395;-83
2024/03/07 08:30:01;;;;;;;5.00;3.65;;;;;;;8.72;61.56;94809.91;5046899;28;20109;-81
2024/03/07 08:32:27;;;;;;;4.40;3.47;;;;;;;8.78;61.46;94812.91;5047146;28;20428;-83
2024/03/07 08:34:53;;;;;;;4.38;3.28;;;;;;;8.80;61.00;94821.44;5047083;28;20021;-85
2024/03/07 08:37:18;;;;;;;4.90;3.88;;;;;;;8.89;60.91;94826.31;5047047;28;20025;-83
2024/03/07 08:39:44;;;;;;;4.22;3.58;;;;;;;8.97;59.84;94824.97;5048799;28;20478;-83
2024/03/07 08:42:09;;;;;;;5.25;3.85;;;;;;;9.03;59.82;94824.00;5046663;28;20074;-84
2024/03/07 08:44:34;;;;;;;5.03;3.83;;;;;;;9.15;59.27;94821.78;5046765;28;20570;-81
2024/03/07 08:47:00;;;;;;;4.35;3.70;;;;;;;9.31;59.18;94819.78;5045965;28;20049;-83
2024/03/07 08:49:25;;;;;;;4.22;3.80;;;;;;;9.31;58.98;94825.28;5046536;28;20029;-82
2024/03/07 08:51:50;;;;;;;4.90;3.85;;;;;;;9.31;59.06;94828.03;5046921;28;20045;-80
2024/03/07 08:54:16;;;;;;;4.57;3.55;;;;;;;9.47;59.38;94829.19;5046006;28;20060;-79
2024/03/07 08:56:41;;;;;;;7.00;4.05;;;;;;;9.53;59.45;94830.97;5046825;28;20036;-86
2024/03/07 08:59:07;;;;;;;7.57;4.30;;;;;;;9.56;59.93;94835.59;5046338;28;20100;-77
2024/03/07 09:01:32;;;;;;;3.47;2.60;;;;;;;9.67;58.53;94827.06;5046278;28;20086;-78
2024/03/07 09:03:59;;;;;;;3.80;2.60;;;;;;;9.66;58.81;94831.03;5046313;28;20060;-77
2024/03/07 09:06:24;;;;;;;3.88;3.00;;;;;;;9.65;59.19;94834.97;5046297;28;20021;-77
2024/03/07 09:08:50;;;;;;;4.32;2.75;;;;;;;9.68;58.55;94842.34;5046050;28;20040;-79
2024/03/07 09:11:15;;;;;;;3.95;2.40;;;;;;;9.54;58.04;94834.50;5046150;28;20060;-76
2024/03/07 09:13:41;;;;;;;4.57;2.65;;;;;;;9.60;57.67;94846.50;5047426;28;20029;-77
2024/03/07 09:16:07;;;;;;;3.92;2.70;;;;;;;9.62;57.55;94846.81;5051034;28;20047;-92
2024/03/07 09:18:32;;;;;;;3.75;2.42;;;;;;;9.66;57.68;94846.72;5032485;28;20037;-78
2024/03/07 09:20:58;;;;;;;4.35;2.63;;;;;;;9.51;58.13;94838.09;5050523;28;20033;-77
2024/03/07 09:23:23;;;;;;;4.15;3.10;;;;;;;9.56;58.45;94843.06;5049966;28;20025;-77
2024/03/07 09:25:48;;;;;;;3.70;2.92;;;;;;;9.58;58.83;94841.44;5050012;28;20403;-79
2024/03/07 09:28:15;;;;;;;6.25;4.15;;;;;;;9.63;58.52;94842.09;5049676;28;20068;-77
2024/03/07 09:30:40;;;;;;;8.77;5.07;;;;;;;9.67;58.77;94843.53;5050358;28;20025;-77
2024/03/07 09:33:10;;;;;;;6.45;3.92;;;;;;;9.80;58.09;94838.88;5049622;28;20075;-77
2024/03/07 09:35:37;;;;;;;8.43;4.03;;;;;;;9.91;58.00;94837.81;5050680;28;20070;-76
2024/03/07 09:38:02;;;;;;;4.80;3.53;;;;;;;10.08;57.33;94840.06;5050339;28;20848;-86
2024/03/07 09:40:28;;;;;;;4.68;3.63;;;;;;;10.18;57.23;94840.97;5048645;28;20120;-75
2024/03/07 09:42:56;;;;;;;6.88;4.10;;;;;;;10.22;57.22;94835.38;5050197;28;20103;-86
2024/03/07 09:45:23;;;;;;;6.40;3.55;;;;;;;10.22;56.56;94835.38;5033446;28;20541;-77
2024/03/07 09:47:49;;;;;;;6.63;3.90;;;;;;;10.17;56.57;94831.19;5052098;28;20045;-78
2024/03/07 09:50:21;;;;;;;6.32;4.45;;;;;;;10.15;56.67;94847.34;5052144;28;20082;-77
2024/03/07 09:52:49;;;;;;;7.13;4.30;;;;;;;10.19;56.68;94852.72;5050000;28;20710;-76
2024/03/07 09:55:15;;;;;;;4.85;3.40;;;;;;;10.13;56.56;94838.75;5049266;28;20027;-75
2024/03/07 09:57:41;;;;;;;6.45;4.35;;;;;;;10.08;56.56;94839.28;5043348;28;20024;-79
2024/03/07 10:00:09;;;;;;;5.40;4.03;;;;;;;10.03;56.97;94824.09;5048396;28;20078;-81
2024/03/07 10:02:36;;;;;;;7.53;3.67;;;;;;;10.20;56.44;94824.81;5064561;28;20815;-77
2024/03/07 10:05:03;;;;;;;6.50;4.30;;;;;;;10.30;56.70;94821.00;5049172;28;20565;-79
2024/03/07 10:07:29;;;;;;;6.40;4.70;;;;;;;10.47;56.74;94816.19;5048061;28;20511;-78
2024/03/07 10:09:56;;;;;;;8.35;4.38;;;;;;;10.70;56.37;94808.81;5049422;28;20029;-78
2024/03/07 10:12:22;;;;;;;6.32;3.15;;;;;;;11.06;55.45;94813.97;5048225;28;20479;-83
2024/03/07 10:14:52;;;;;;;6.63;3.60;;;;;;;11.61;53.99;94823.50;5048792;28;20029;-83
2024/03/07 10:17:18;;;;;;;5.38;3.50;;;;;;;12.48;51.28;94819.22;5048850;28;20491;-80
2024/03/07 10:19:47;;;;;;;5.97;3.40;;;;;;;12.73;51.29;94812.72;5048783;28;20399;-79
2024/03/07 10:22:14;;;;;;;3.80;2.95;;;;;;;13.43;49.04;94816.66;5047617;28;20025;-80
2024/03/07 10:24:39;;;;;;;5.53;3.03;;;;;;;13.79;47.11;94818.66;5048994;28;20087;-79
2024/03/07 10:27:05;;;;;;;3.88;2.70;;;;;;;14.06;46.11;94815.13;5050305;28;20029;-83
2024/03/07 10:29:31;;;;;;;4.90;2.83;;;;;;;14.73;45.50;94807.75;5063910;28;20021;-83
2024/03/07 10:31:57;;;;;;;6.93;3.80;;;;;;;15.33;44.59;94808.84;5051011;28;20025;-82
2024/03/07 10:34:24;;;;;;;4.25;2.88;;;;;;;14.99;45.86;94816.41;5048643;28;20490;-78
2024/03/07 10:36:51;;;;;;;5.05;2.90;;;;;;;15.00;45.19;94804.09;5048200;28;20514;-78
2024/03/07 10:39:21;;;;;;;8.27;3.25;;;;;;;14.96;45.97;94789.66;5048226;28;20108;-84
2024/03/07 10:41:48;;;;;;;4.55;2.88;;;;;;;15.09;44.65;94793.00;5048480;28;20021;-81
2024/03/07 10:44:28;;;;;;;4.38;2.88;;;;;;;15.38;43.43;94808.22;5046709;28;20029;-78
2024/03/07 10:46:55;;;;;;;3.90;3.10;;;;;;;15.39;43.83;94804.19;5049734;28;20499;-78
2024/03/07 10:49:24;;;;;;;4.35;2.85;;;;;;;15.01;44.42;94800.09;5049211;28;20402;-78
2024/03/07 10:52:14;;;;;;;5.35;2.70;;;;;;;14.51;44.54;94793.41;5048827;28;20117;-78
2024/03/07 10:54:49;;;;;;;3.47;2.83;;;;;;;14.13;44.47;94799.44;5047355;28;20025;-78
2024/03/07 10:57:47;;;;;;;3.17;2.55;;;;;;;14.08;45.43;94795.31;5047119;28;20128;-79
2024/03/07 11:00:29;;;;;;;3.53;2.80;;;;;;;13.70;45.24;94791.03;5046710;28;20507;-78
2024/03/07 11:02:56;;;;;;;3.08;2.40;;;;;;;13.27;45.90;94778.28;5048453;28;20108;-78
2024/03/07 11:05:24;;;;;;;3.17;2.75;;;;;;;13.05;46.27;94789.41;5048357;28;20032;-79
2024/03/07 11:07:51;;;;;;;3.15;2.63;;;;;;;12.76;47.09;94789.78;5046233;28;20032;-77
2024/03/07 11:10:18;;;;;;;4.93;2.83;;;;;;;12.49;47.74;94782.91;5047031;28;20025;-77
2024/03/07 11:15:28;;;;;;;4.03;2.67;;;;;;;12.30;49.04;94775.03;5047717;28;20491;-78
2024/03/07 11:17:54;;;;;;;3.67;2.88;;;;;;;12.08;49.03;94775.81;5046715;28;20108;-79
2024/03/07 11:20:26;;;;;;;2.85;2.47;;;;;;;11.96;49.32;94762.88;5046473;28;20037;-77
2024/03/07 11:22:55;;;;;;;4.50;3.05;;;;;;;11.75;49.54;94753.38;5047818;28;20025;-79
2024/03/07 11:25:22;;;;;;;3.83;2.70;;;;;;;11.58;49.96;94766.56;5047451;28;20158;-77
2024/03/07 11:27:57;;;;;;;3.70;2.97;;;;;;;11.52;50.18;94762.84;5047611;28;20032;-80
2024/03/07 11:30:24;;;;;;;3.78;3.38;;;;;;;11.44;50.74;94764.34;5047367;28;20075;-78
2024/03/07 11:32:53;;;;;;;3.67;2.92;;;;;;;11.53;51.37;94758.13;5047389;28;20071;-78
2024/03/07 11:35:32;;;;;;;4.45;3.38;;;;;;;11.62;51.61;94756.22;5047253;28;20052;-77